createdAt,value
2018-10-11T00:01:31.502Z,24.77
2018-10-11T00:03:59.706Z,21.12
2018-10-11T00:06:27.866Z,21.50
2018-10-11T00:08:56.046Z,17.02
2018-10-11T00:11:24.213Z,23.02
2018-10-11T00:13:52.373Z,18.70
2018-10-11T00:16:20.577Z,22.90
2018-10-11T00:18:48.753Z,19.92
2018-10-11T00:21:16.938Z,18.40
2018-10-11T00:23:45.089Z,23.10
2018-10-11T00:26:13.255Z,20.32
2018-10-11T00:28:41.410Z,20.72
2018-10-11T00:31:09.576Z,22.35
2018-10-11T00:33:37.735Z,27.02
2018-10-11T00:36:05.955Z,19.42
2018-10-11T00:38:34.107Z,20.23
2018-10-11T00:41:02.269Z,18.10
2018-10-11T00:43:30.443Z,18.65
2018-10-11T00:45:58.680Z,21.77
2018-10-11T00:48:26.859Z,20.48
2018-10-11T00:50:55.028Z,21.52
2018-10-11T00:53:23.168Z,21.33
2018-10-11T00:55:51.379Z,21.77
2018-10-11T00:58:19.520Z,17.32
2018-10-11T01:00:47.701Z,20.92
2018-10-11T01:03:15.843Z,24.75
2018-10-11T01:05:44.007Z,21.20
2018-10-11T01:08:12.244Z,20.62
2018-10-11T01:10:40.431Z,24.70
2018-10-11T01:13:08.579Z,18.70
2018-10-11T01:15:36.731Z,19.50
2018-10-11T01:18:04.980Z,19.30
2018-10-11T01:20:33.114Z,21.37
2018-10-11T01:23:01.298Z,19.70
2018-10-11T01:25:29.443Z,20.48
2018-10-11T01:27:57.604Z,19.40
2018-10-11T01:30:26.172Z,17.87
2018-10-11T01:32:54.371Z,20.85
2018-10-11T01:35:22.544Z,20.00
2018-10-11T01:37:50.676Z,19.57
2018-10-11T01:40:18.852Z,20.88
2018-10-11T01:42:54.476Z,20.55
2018-10-11T01:45:22.633Z,19.07
2018-10-11T01:47:50.794Z,20.50
2018-10-11T01:50:18.967Z,18.62
2018-10-11T01:52:47.149Z,19.27
2018-10-11T01:55:15.324Z,17.87
2018-10-11T01:57:43.481Z,16.10
2018-10-11T02:00:11.635Z,19.60
2018-10-11T02:02:39.827Z,18.25
2018-10-11T02:05:08.133Z,20.17
2018-10-11T02:07:36.334Z,18.55
2018-10-11T02:10:04.496Z,20.12
2018-10-11T02:12:32.647Z,18.15
2018-10-11T02:15:00.816Z,19.75
2018-10-11T02:17:29.008Z,22.35
2018-10-11T02:19:57.188Z,18.50
2018-10-11T02:22:25.359Z,18.37
2018-10-11T02:24:53.526Z,19.90
2018-10-11T02:27:21.719Z,19.73
2018-10-11T02:29:49.893Z,22.20
2018-10-11T02:32:18.049Z,18.42
2018-10-11T02:34:46.209Z,20.20
2018-10-11T02:37:14.351Z,18.15
2018-10-11T02:39:42.509Z,20.35
2018-10-11T02:42:10.684Z,19.05
2018-10-11T02:44:38.865Z,17.07
2018-10-11T02:47:07.010Z,21.25
2018-10-11T02:49:35.173Z,18.23
2018-10-11T02:52:03.355Z,17.45
2018-10-11T02:54:31.511Z,17.75
2018-10-11T02:57:02.837Z,18.55
2018-10-11T02:59:35.131Z,18.12
2018-10-11T03:02:06.149Z,16.05
2018-10-11T03:04:35.095Z,19.37
2018-10-11T03:07:04.205Z,17.57
2018-10-11T03:09:32.368Z,16.10
2018-10-11T03:12:00.527Z,18.23
2018-10-11T03:14:28.930Z,17.73
2018-10-11T03:16:57.092Z,18.55
2018-10-11T03:19:25.250Z,17.20
2018-10-11T03:21:53.440Z,18.42
2018-10-11T03:24:21.647Z,17.55
2018-10-11T03:26:49.758Z,17.27
2018-10-11T03:29:17.913Z,16.85
2018-10-11T03:31:46.126Z,17.60
2018-10-11T03:34:14.315Z,17.27
2018-10-11T03:36:42.811Z,19.15
2018-10-11T03:39:10.996Z,19.52
2018-10-11T03:41:39.141Z,18.65
2018-10-11T03:44:07.326Z,17.35
2018-10-11T03:46:35.550Z,16.73
2018-10-11T03:49:03.644Z,15.23
2018-10-11T03:51:31.815Z,16.95
2018-10-11T03:53:59.991Z,16.75
2018-10-11T03:56:28.144Z,18.50
2018-10-11T03:58:56.306Z,15.55
2018-10-11T04:01:24.485Z,16.65
2018-10-11T04:03:52.669Z,19.85
2018-10-11T04:06:20.824Z,16.70
2018-10-11T04:08:48.977Z,19.20
2018-10-11T04:11:17.157Z,15.88
2018-10-11T04:13:45.329Z,14.45
2018-10-11T04:16:13.504Z,16.75
2018-10-11T04:18:42.212Z,18.70
2018-10-11T04:21:10.781Z,16.40
2018-10-11T04:23:38.967Z,19.02
2018-10-11T04:26:07.279Z,17.15
2018-10-11T04:28:35.428Z,15.35
2018-10-11T04:31:03.580Z,15.85
2018-10-11T04:33:31.746Z,17.90
2018-10-11T04:35:59.937Z,15.93
2018-10-11T04:38:28.658Z,18.55
2018-10-11T04:40:56.848Z,16.10
2018-10-11T04:43:25.014Z,18.20
2018-10-11T04:45:53.204Z,15.48
2018-10-11T04:48:21.392Z,18.30
2018-10-11T04:50:49.583Z,17.65
2018-10-11T04:53:17.755Z,19.57
2018-10-11T04:55:45.960Z,14.70
2018-10-11T04:58:14.134Z,15.60
2018-10-11T05:00:42.345Z,13.85
2018-10-11T05:03:11.985Z,18.37
2018-10-11T05:05:40.785Z,15.58
2018-10-11T05:08:08.957Z,15.32
2018-10-11T05:10:37.128Z,15.58
2018-10-11T05:13:05.299Z,18.17
2018-10-11T05:15:34.770Z,17.70
2018-10-11T05:18:03.641Z,14.45
2018-10-11T05:20:31.816Z,14.58
2018-10-11T05:22:59.975Z,13.53
2018-10-11T05:25:28.174Z,18.05
2018-10-11T05:27:56.371Z,16.07
2018-10-11T05:30:24.640Z,16.52
2018-10-11T05:32:53.219Z,19.87
2018-10-11T05:35:21.425Z,18.87
2018-10-11T05:37:49.674Z,19.23
2018-10-11T05:40:17.841Z,18.30
2018-10-11T05:42:46.071Z,15.45
2018-10-11T05:45:16.936Z,18.50
2018-10-11T05:47:45.168Z,22.15
2018-10-11T05:50:13.629Z,17.98
2018-10-11T05:52:42.808Z,17.57
2018-10-11T05:55:11.259Z,18.82
2018-10-11T05:57:39.632Z,15.55
2018-10-11T06:00:09.066Z,19.05
2018-10-11T06:02:48.195Z,22.90
2018-10-11T06:05:16.410Z,24.12
2018-10-11T06:07:44.635Z,18.57
2018-10-11T06:10:12.878Z,17.15
2018-10-11T06:12:41.521Z,14.40
2018-10-11T06:15:09.723Z,16.35
2018-10-11T06:17:38.223Z,15.95
2018-10-11T06:20:06.646Z,14.50
2018-10-11T06:22:34.879Z,16.45
2018-10-11T06:25:03.107Z,21.23
2018-10-11T06:27:31.322Z,15.72
2018-10-11T06:29:59.909Z,18.60
2018-10-11T06:32:28.118Z,21.20
2018-10-11T06:34:56.358Z,19.95
2018-10-11T06:37:24.542Z,16.00
2018-10-11T06:39:52.740Z,17.00
2018-10-11T06:42:21.253Z,20.72
2018-10-11T06:44:49.421Z,17.35
2018-10-11T06:47:18.854Z,18.17
2018-10-11T06:49:47.227Z,17.20
2018-10-11T06:52:15.638Z,21.37
2018-10-11T06:54:44.065Z,17.52
2018-10-11T06:57:12.255Z,15.18
2018-10-11T06:59:40.435Z,15.18
2018-10-11T07:02:08.684Z,13.18
2018-10-11T07:04:36.875Z,16.40
2018-10-11T07:07:05.112Z,16.13
2018-10-11T07:09:33.286Z,11.80
2018-10-11T07:12:01.472Z,12.40
2018-10-11T07:14:29.895Z,14.00
2018-10-11T07:16:59.355Z,15.53
2018-10-11T07:19:29.239Z,14.20
2018-10-11T07:21:59.028Z,13.57
2018-10-11T07:24:29.437Z,12.80
2018-10-11T07:26:59.539Z,15.17
2018-10-11T07:29:29.354Z,17.20
2018-10-11T07:32:02.362Z,14.40
2018-10-11T07:34:31.581Z,12.67
2018-10-11T07:37:00.411Z,12.93
2018-10-11T07:39:29.899Z,16.43
2018-10-11T07:41:59.773Z,13.10
2018-10-11T07:44:29.127Z,11.97
2018-10-11T07:47:04.555Z,12.67
2018-10-11T07:49:34.356Z,13.53
2018-10-11T07:52:03.037Z,14.97
2018-10-11T07:54:31.564Z,12.47
2018-10-11T07:57:00.617Z,14.27
2018-10-11T07:59:29.491Z,12.63
2018-10-11T08:01:58.195Z,12.70
2018-10-11T08:04:28.920Z,12.90
2018-10-11T08:06:57.772Z,13.60
2018-10-11T08:09:26.919Z,14.80
2018-10-11T08:11:55.707Z,12.10
2018-10-11T08:14:24.627Z,11.73
2018-10-11T08:16:53.219Z,13.17
2018-10-11T08:19:22.035Z,13.70
2018-10-11T08:21:50.736Z,14.80
2018-10-11T08:24:19.090Z,12.37
2018-10-11T08:26:47.577Z,14.30
2018-10-11T08:29:15.914Z,14.33
2018-10-11T08:31:44.332Z,14.03
2018-10-11T08:34:12.571Z,15.93
2018-10-11T08:36:40.960Z,15.90
2018-10-11T08:39:11.063Z,13.83
2018-10-11T08:41:39.865Z,16.17
2018-10-11T08:44:09.419Z,15.20
2018-10-11T08:46:37.764Z,16.80
2018-10-11T08:49:06.246Z,15.33
2018-10-11T08:51:34.705Z,15.60
2018-10-11T08:54:08.279Z,17.10
2018-10-11T08:56:36.904Z,15.30
2018-10-11T08:59:05.356Z,17.30
2018-10-11T09:01:33.881Z,15.33
2018-10-11T09:04:02.230Z,15.80
2018-10-11T09:06:30.451Z,16.73
2018-10-11T09:08:58.679Z,15.33
2018-10-11T09:11:26.989Z,15.53
2018-10-11T09:13:55.238Z,17.80
2018-10-11T09:16:23.604Z,15.57
2018-10-11T09:18:51.968Z,14.60
2018-10-11T09:21:20.815Z,17.77
2018-10-11T09:23:49.057Z,15.87
2018-10-11T09:26:17.417Z,16.43
2018-10-11T09:28:45.859Z,16.40
2018-10-11T09:31:14.140Z,18.97
2018-10-11T09:33:42.406Z,19.07
2018-10-11T09:36:11.155Z,14.30
2018-10-11T09:38:39.375Z,15.60
2018-10-11T09:41:07.800Z,17.60
2018-10-11T09:43:36.244Z,14.23
2018-10-11T09:46:04.602Z,15.43
2018-10-11T09:48:33.075Z,15.50
2018-10-11T09:51:03.395Z,16.43
2018-10-11T09:53:31.711Z,17.00
2018-10-11T09:56:00.128Z,16.70
2018-10-11T09:58:28.627Z,16.03
2018-10-11T10:01:02.231Z,14.57
2018-10-11T10:03:30.505Z,15.57
2018-10-11T10:05:58.716Z,16.33
2018-10-11T10:08:26.895Z,15.30
2018-10-11T10:10:55.095Z,15.87
2018-10-11T10:13:23.263Z,14.30
2018-10-11T10:15:51.438Z,15.93
2018-10-11T10:18:19.637Z,16.60
2018-10-11T10:20:47.860Z,15.57
2018-10-11T10:23:16.040Z,16.20
2018-10-11T10:25:44.344Z,15.87
2018-10-11T10:28:12.504Z,16.07
2018-10-11T10:30:46.166Z,14.20
2018-10-11T10:33:14.360Z,13.97
2018-10-11T10:35:42.524Z,15.90
2018-10-11T10:38:10.694Z,15.83
2018-10-11T10:40:39.626Z,17.20
2018-10-11T10:43:08.206Z,14.63
2018-10-11T10:45:38.033Z,16.07
2018-10-11T10:48:06.339Z,15.00
2018-10-11T10:50:34.544Z,21.10
2018-10-11T10:53:08.633Z,15.03
2018-10-11T10:55:37.964Z,15.83
2018-10-11T10:58:06.631Z,13.70
2018-10-11T11:00:35.281Z,13.83
2018-10-11T11:03:03.764Z,14.40
2018-10-11T11:05:38.123Z,13.57
2018-10-11T11:08:07.107Z,13.40
2018-10-11T11:10:35.825Z,14.00
2018-10-11T11:13:10.461Z,14.80
2018-10-11T11:15:39.620Z,14.43
2018-10-11T11:18:13.067Z,14.10
2018-10-11T11:20:53.765Z,14.67
2018-10-11T11:23:24.831Z,13.87
2018-10-11T11:25:55.367Z,13.60
2018-10-11T11:28:31.668Z,14.40
2018-10-11T11:31:05.391Z,16.40
2018-10-11T11:33:42.770Z,13.43
2018-10-11T11:36:21.859Z,12.93
2018-10-11T11:41:38.063Z,11.63
2018-10-11T11:44:14.410Z,13.13
2018-10-11T11:46:44.696Z,15.93
2018-10-11T11:49:13.978Z,16.23
2018-10-11T11:51:45.517Z,15.10
2018-10-11T11:54:15.675Z,15.73
2018-10-11T11:56:43.872Z,14.20
2018-10-11T11:59:12.139Z,16.80
2018-10-11T12:01:40.416Z,15.60
2018-10-11T12:04:08.592Z,13.80
2018-10-11T12:06:36.763Z,14.60
2018-10-11T12:09:08.823Z,11.57
2018-10-11T12:11:37.198Z,11.23
2018-10-11T12:14:05.816Z,10.67
2018-10-11T12:16:34.020Z,11.37
2018-10-11T12:19:02.174Z,13.70
2018-10-11T12:21:30.363Z,12.03
2018-10-11T12:23:58.566Z,10.43
2018-10-11T12:26:26.727Z,10.07
2018-10-11T12:28:55.474Z,10.60
2018-10-11T12:31:23.655Z,12.20
2018-10-11T12:33:51.844Z,13.20
2018-10-11T12:36:20.268Z,9.90
2018-10-11T12:38:48.590Z,10.90
2018-10-11T12:41:16.687Z,11.57
2018-10-11T12:43:45.362Z,11.47
2018-10-11T12:46:13.868Z,13.10
2018-10-11T12:48:42.140Z,14.80
2018-10-11T12:51:10.347Z,11.57
2018-10-11T12:53:41.121Z,12.87
2018-10-11T12:56:07.031Z,12.93
2018-10-11T12:58:35.197Z,12.57
2018-10-11T13:01:03.443Z,12.40
2018-10-11T13:03:31.592Z,12.10
2018-10-11T13:05:59.838Z,12.87
2018-10-11T13:08:28.082Z,11.33
2018-10-11T13:10:56.287Z,15.67
2018-10-11T13:13:24.456Z,11.47
2018-10-11T13:15:52.648Z,11.37
2018-10-11T13:18:20.818Z,14.30
2018-10-11T13:20:48.976Z,11.87
2018-10-11T13:23:18.708Z,12.87
2018-10-11T13:25:45.321Z,13.60
2018-10-11T13:28:13.503Z,12.53
2018-10-11T13:30:41.819Z,12.40
2018-10-11T13:33:09.895Z,11.53
2018-10-11T13:35:38.114Z,12.77
2018-10-11T13:38:06.315Z,14.43
2018-10-11T13:40:34.501Z,12.20
2018-10-11T13:43:02.657Z,11.60
2018-10-11T13:45:30.836Z,11.43
2018-10-11T13:47:58.991Z,12.40
2018-10-11T13:50:27.147Z,13.03
2018-10-11T13:52:55.344Z,12.00
2018-10-11T13:55:23.478Z,13.20
2018-10-11T13:57:51.657Z,12.60
2018-10-11T14:00:19.796Z,13.00
2018-10-11T14:02:47.973Z,15.27
2018-10-11T14:05:16.251Z,15.90
2018-10-11T14:07:44.409Z,14.03
2018-10-11T14:10:12.599Z,15.60
2018-10-11T14:12:40.828Z,13.13
2018-10-11T14:15:09.048Z,14.67
2018-10-11T14:17:37.327Z,13.30
2018-10-11T14:20:05.528Z,17.20
2018-10-11T14:22:34.097Z,13.20
2018-10-11T14:25:03.191Z,13.37
2018-10-11T14:27:31.801Z,20.30
2018-10-11T14:29:59.981Z,15.20
2018-10-11T14:32:28.415Z,16.27
2018-10-11T14:34:56.664Z,14.57
2018-10-11T14:37:24.993Z,13.73
2018-10-11T14:39:53.675Z,18.37
2018-10-11T14:42:21.968Z,15.53
2018-10-11T14:44:50.203Z,13.97
2018-10-11T14:47:18.562Z,13.50
2018-10-11T14:49:46.881Z,12.23
2018-10-11T14:52:15.173Z,12.97
2018-10-11T14:54:43.672Z,13.30
2018-10-11T14:57:11.900Z,15.07
2018-10-11T14:59:40.324Z,12.47
2018-10-11T15:02:09.588Z,15.53
2018-10-11T15:04:37.909Z,19.17
2018-10-11T15:07:06.763Z,18.57
2018-10-11T15:09:35.020Z,15.50
2018-10-11T15:12:03.220Z,13.30
2018-10-11T15:14:31.656Z,15.10
2018-10-11T15:17:00.068Z,16.53
2018-10-11T15:19:28.269Z,13.20
2018-10-11T15:21:56.492Z,19.67
2018-10-11T15:24:24.658Z,13.23
2018-10-11T15:26:52.860Z,13.20
2018-10-11T15:29:21.146Z,14.80
2018-10-11T15:31:49.251Z,12.87
2018-10-11T15:34:17.412Z,17.10
2018-10-11T15:36:45.920Z,17.07
2018-10-11T15:39:15.350Z,14.07
2018-10-11T15:41:43.619Z,17.27
2018-10-11T15:44:12.287Z,13.80
2018-10-11T15:46:41.479Z,15.33
2018-10-11T15:49:09.865Z,14.27
2018-10-11T15:51:38.312Z,13.87
2018-10-11T15:54:06.788Z,18.20
2018-10-11T15:56:37.080Z,20.43
2018-10-11T15:59:05.238Z,16.30
2018-10-11T16:01:33.425Z,17.20
2018-10-11T16:04:01.575Z,14.07
2018-10-11T16:06:31.128Z,13.07
2018-10-11T16:08:59.329Z,13.53
2018-10-11T16:11:27.458Z,14.00
2018-10-11T16:13:56.074Z,11.83
2018-10-11T16:16:24.376Z,12.20
2018-10-11T16:18:52.633Z,13.60
2018-10-11T16:21:20.829Z,12.83
2018-10-11T16:23:48.998Z,14.90
2018-10-11T16:26:17.252Z,13.10
2018-10-11T16:28:45.416Z,13.60
2018-10-11T16:31:13.556Z,17.43
2018-10-11T16:33:41.728Z,16.40
2018-10-11T16:36:09.907Z,16.40
2018-10-11T16:38:38.130Z,14.43
2018-10-11T16:41:06.291Z,18.00
2018-10-11T16:43:34.450Z,15.50
2018-10-11T16:46:02.643Z,15.40
2018-10-11T16:48:30.864Z,18.07
2018-10-11T16:50:59.933Z,18.50
2018-10-11T16:53:28.207Z,15.07
2018-10-11T16:55:56.397Z,15.10
2018-10-11T16:58:24.600Z,16.63
2018-10-11T17:00:52.811Z,15.40
2018-10-11T17:03:22.556Z,16.37
2018-10-11T17:05:50.720Z,21.37
2018-10-11T17:08:18.906Z,17.50
2018-10-11T17:10:50.958Z,21.93
2018-10-11T17:13:19.127Z,18.70
2018-10-11T17:15:47.268Z,19.33
2018-10-11T17:18:15.440Z,20.70
2018-10-11T17:20:43.587Z,17.33
2018-10-11T17:23:11.758Z,17.60
2018-10-11T17:25:39.957Z,18.30
2018-10-11T17:28:08.131Z,17.07
2018-10-11T17:30:36.304Z,18.43
2018-10-11T17:33:04.448Z,18.20
2018-10-11T17:35:32.907Z,20.80
2018-10-11T17:38:01.220Z,18.30
2018-10-11T17:40:29.474Z,22.90
2018-10-11T17:42:57.820Z,17.13
2018-10-11T17:45:26.186Z,18.77
2018-10-11T17:47:54.565Z,19.73
2018-10-11T17:50:22.951Z,19.00
2018-10-11T17:52:51.779Z,18.70
2018-10-11T17:55:22.749Z,21.90
2018-10-11T17:57:51.351Z,17.90
2018-10-11T18:00:19.552Z,20.20
2018-10-11T18:02:48.842Z,17.57
2018-10-11T18:05:17.351Z,20.23
2018-10-11T18:07:54.603Z,19.50
2018-10-11T18:10:23.006Z,19.63
2018-10-11T18:12:51.336Z,18.13
2018-10-11T18:15:31.681Z,18.83
2018-10-11T18:18:01.350Z,20.10
2018-10-11T18:20:29.637Z,21.20
2018-10-11T18:23:03.955Z,24.40
2018-10-11T18:25:33.442Z,22.53
2018-10-11T18:28:03.831Z,18.50
2018-10-11T18:30:32.121Z,20.17
2018-10-11T18:33:00.440Z,25.50
2018-10-11T18:35:29.988Z,28.23
2018-10-11T18:37:58.139Z,20.03
2018-10-11T18:40:26.575Z,23.90
2018-10-11T18:42:55.020Z,19.43
2018-10-11T18:45:24.335Z,27.63
2018-10-11T18:47:52.837Z,19.47
2018-10-11T18:50:21.171Z,20.20
2018-10-11T18:52:49.501Z,23.07
2018-10-11T18:55:24.511Z,21.10
2018-10-11T18:57:53.140Z,23.00
2018-10-11T19:00:22.686Z,27.47
2018-10-11T19:02:51.180Z,29.17
2018-10-11T19:05:19.749Z,24.00
2018-10-11T19:07:48.680Z,27.50
2018-10-11T19:10:17.231Z,27.57
2018-10-11T19:12:45.604Z,23.70
2018-10-11T19:15:13.880Z,31.27
2018-10-11T19:17:42.181Z,24.90
2018-10-11T19:20:10.570Z,25.70
2018-10-11T19:22:38.997Z,24.33
2018-10-11T19:25:07.520Z,22.53
2018-10-11T19:27:35.815Z,24.60
2018-10-11T19:30:04.334Z,22.97
2018-10-11T19:32:32.736Z,23.60
2018-10-11T19:35:01.017Z,23.03
2018-10-11T19:37:29.365Z,25.70
2018-10-11T19:39:59.737Z,24.63
2018-10-11T19:42:28.200Z,21.90
2018-10-11T19:44:57.167Z,22.00
2018-10-11T19:47:26.697Z,22.47
2018-10-11T19:49:57.104Z,23.57
2018-10-11T19:52:25.491Z,25.90
2018-10-11T19:54:54.012Z,22.27
2018-10-11T19:57:22.375Z,28.47
2018-10-11T19:59:50.748Z,25.10
2018-10-11T20:02:19.485Z,23.83
2018-10-11T20:04:48.507Z,23.83
2018-10-11T20:07:17.623Z,25.93
2018-10-11T20:09:46.397Z,26.03
2018-10-11T20:12:14.892Z,27.07
2018-10-11T20:14:43.506Z,26.97
2018-10-11T20:17:12.697Z,26.10
2018-10-11T20:19:41.909Z,23.30
2018-10-11T20:22:11.429Z,30.87
2018-10-11T20:24:48.017Z,27.50
2018-10-11T20:27:16.202Z,24.63
2018-10-11T20:29:44.379Z,26.13
2018-10-11T20:32:12.577Z,21.80
2018-10-11T20:34:40.804Z,22.40
2018-10-11T20:37:08.979Z,23.10
2018-10-11T20:39:37.172Z,21.57
2018-10-11T20:42:17.171Z,27.33
2018-10-11T20:44:45.381Z,26.20
2018-10-11T20:47:13.675Z,22.57
2018-10-11T20:49:43.864Z,25.47
2018-10-11T20:52:12.036Z,26.80
2018-10-11T20:54:40.208Z,21.70
2018-10-11T20:57:08.439Z,24.63
2018-10-11T20:59:36.619Z,24.13
2018-10-11T21:02:04.883Z,23.27
2018-10-11T21:04:33.089Z,22.20
2018-10-11T21:07:01.252Z,24.40
2018-10-11T21:09:29.512Z,22.20
2018-10-11T21:11:57.841Z,25.30
2018-10-11T21:14:25.999Z,22.90
2018-10-11T21:16:54.200Z,26.77
2018-10-11T21:19:22.376Z,21.90
2018-10-11T21:21:50.546Z,24.90
2018-10-11T21:24:18.719Z,22.83
2018-10-11T21:26:46.914Z,27.07
2018-10-11T21:29:15.123Z,28.57
2018-10-11T21:31:43.336Z,33.93
2018-10-11T21:34:11.557Z,33.13
2018-10-11T21:36:39.696Z,30.10
2018-10-11T21:39:10.121Z,57.43
2018-10-11T21:41:38.285Z,28.53
2018-10-11T21:44:06.651Z,27.57
2018-10-11T21:46:34.833Z,29.57
2018-10-11T21:49:03.019Z,29.33
2018-10-11T21:51:31.215Z,41.40
2018-10-11T21:53:59.428Z,27.13
2018-10-11T21:56:27.646Z,27.60
2018-10-11T21:58:55.847Z,28.83
2018-10-11T22:01:24.948Z,30.17
2018-10-11T22:03:53.685Z,35.33
2018-10-11T22:06:22.087Z,29.30
2018-10-11T22:08:50.286Z,32.47
2018-10-11T22:11:18.482Z,30.37
2018-10-11T22:13:46.645Z,32.63
2018-10-11T22:16:14.928Z,30.83
2018-10-11T22:18:43.175Z,27.00
2018-10-11T22:21:12.231Z,33.23
2018-10-11T22:23:41.935Z,32.50
2018-10-11T22:26:10.615Z,28.27
2018-10-11T22:28:39.319Z,33.50
2018-10-11T22:31:08.403Z,31.40
2018-10-11T22:33:36.619Z,31.67
2018-10-11T22:36:04.800Z,26.33
2018-10-11T22:38:32.974Z,31.30
2018-10-11T22:41:01.126Z,31.60
2018-10-11T22:43:29.308Z,29.43
2018-10-11T22:46:16.517Z,28.30
2018-10-11T22:48:44.736Z,30.83
2018-10-11T22:51:12.947Z,32.23
2018-10-11T22:53:41.451Z,29.13
2018-10-11T22:56:11.559Z,29.80
2018-10-11T22:58:39.752Z,25.27
2018-10-11T23:01:07.948Z,26.40
2018-10-11T23:03:36.143Z,27.40
2018-10-11T23:06:04.322Z,27.20
2018-10-11T23:08:32.501Z,29.17
2018-10-11T23:11:00.677Z,30.20
2018-10-11T23:13:28.883Z,30.57
2018-10-11T23:15:57.179Z,34.67
2018-10-11T23:18:25.348Z,32.97
2018-10-11T23:20:53.619Z,28.23
2018-10-11T23:23:21.858Z,30.07
2018-10-11T23:25:50.047Z,36.97
2018-10-11T23:28:18.245Z,29.03
2018-10-11T23:30:46.411Z,31.83
2018-10-11T23:33:14.612Z,29.93
2018-10-11T23:35:42.785Z,30.97
2018-10-11T23:38:10.948Z,30.87
2018-10-11T23:40:39.119Z,31.47
2018-10-11T23:43:07.321Z,41.20
2018-10-11T23:45:35.502Z,29.70
2018-10-11T23:48:03.684Z,33.13
2018-10-11T23:50:31.868Z,27.57
2018-10-11T23:53:00.044Z,30.67
2018-10-11T23:55:30.647Z,30.20
2018-10-11T23:57:59.244Z,31.70
